LPPSGCLA

Guest
Details From LPPS - Porto Santo
To GCLA - La Palma
Flight Number -
Tags generated
Created
Modified
Stats Distance 303 nm / 561 km
Max Altitude 23,500 ft / 7,163 m
Waypoints 5
Social Downloads 2
Likes 0
Share VATSIM

Download

Looking for another format? Having issues loading an existing format? Contact us
Advertisement - Login to hide

Notes

Basic altitude profile: - Ascent Rate: 2500ft/min - Ascent Speed: 250kts - Cruise Altitude: 35000ft - Cruise Speed: 420kts - Descent Rate: 1500ft/min - Descent Speed: 250kts Options: - Use NATs: yes - Use PACOTS: yes - Use low airways: yes - Use high airways: yes

Route

LPPS TABOM G851 ORTIS UN728 BRICK GCLA

ID Type Via Altitude Latitude Longitude Leg Dist Tot Dist Heading (true) Name
O LPPS APT - 0 ft / 0 m 33.07341˚ -16.34995˚ - 0 nm - Porto Santo
TABOM FIX - 18,200 ft / 5,547 m 32.22556˚ -16.45750˚ 51 nm 51 nm 186° / 186° -
ORTIS FIX G851 (AWY-LO) 18,500 ft / 5,639 m 31.40696˚ -16.55691˚ 49 nm 100 nm 186° / 186° -
BRICK FIX UN728 (AWY-HI) 23,500 ft / 7,163 m 29.59137˚ -16.37289˚ 109 nm 210 nm 175° / 175° -
O GCLA APT - 0 ft / 0 m 28.62648˚ -17.75561˚ 92 nm 302 nm 232° / 231° La Palma

Altitude Profile

Advertisement - Login to hide

Weather


0- 5 10 15 20 25 30 35+ Temperature / ° C

Clouds and Precipitation
Forecast for 2018-05-25 12:00 UTC. Updated 2 hours ago

Ground ~20,000 ft ~40,000 ft Winds

LPPS

Details ICAO LPPS (PXO)
Name Porto Santo
Region Portugal
Timezone Atlantic/Madeira (UTC+1.0)
Stats Elevation 340 ft / 104 m (AMSL)
Location 33.073413° -16.349946°
Runways 1
Magnetic Variation 4.764° W

METAR

LPPS 251230Z 35014KT 9999 FEW015 BKN030 19/10 Q1020

Decode

TAF

TAF LPPS 251130Z 2512/2618 36015KT 9999 SCT015 BKN030

Decode

Departure Runways

ID Width Length Bearing (true) Bearing (mag) Surface Threshold Offset Overrun Length
18 148 ft / 45 m 9,890 ft / 3,014 m 178.11° 182.87° Asphalt 0 ft / 0 m 0 ft / 0 m
36 148 ft / 45 m 9,890 ft / 3,014 m 358.12° 2.88° Asphalt 0 ft / 0 m 499 ft / 152 m

GCLA

Details ICAO GCLA (SPC)
Name La Palma
Region Canary Islands
Timezone Atlantic/Canary (UTC+1.0)
Stats Elevation 107 ft / 33 m (AMSL)
Location 28.626480° -17.755613°
Runways 1
Magnetic Variation 5.469° W

METAR

GCLA 251230Z 04009KT 360V100 9999 SCT045 23/15 Q1019

Decode

TAF

TAF GCLA 250800Z 2509/2609 03014KT 9999 BKN040 TX23/2514Z TN17/2605Z TEMPO 2523/2608 34004KT PROB40 TEMPO 2514/2519 03015G25KT

Decode

Destination Runways

ID Width Length Bearing (true) Bearing (mag) Surface Threshold Offset Overrun Length
01 148 ft / 45 m 7,240 ft / 2,207 m 359.02° 4.49° Asphalt 0 ft / 0 m 279 ft / 85 m
19 148 ft / 45 m 7,240 ft / 2,207 m 179.02° 184.49° Asphalt 0 ft / 0 m 236 ft / 72 m

Popular Alternatives